Time;durP1;ratioP1;P1;durP2;ratioP2;P2;SDS_P1;SDS_P2;PMS_P1;PMS_P2;Temp;Humidity;BMP_temperature;BMP_pressure;BME280_temperature;BME280_humidity;BME280_pressure;Samples;Min_cycle;Max_cycle;Signal;HPM_P1;HPM_P2
2022/05/19 00:01:50;;;;;;;47.50;38.83;;;17.50;99.90;;;;;;4978056;28;90570;-36
2022/05/19 00:04:16;;;;;;;38.15;33.58;;;17.60;99.90;;;;;;4979655;28;89688;-36
2022/05/19 00:06:42;;;;;;;38.47;32.90;;;17.60;99.90;;;;;;4978438;28;90646;-38
2022/05/19 00:09:08;;;;;;;40.53;34.42;;;17.50;99.90;;;;;;4979417;28;88353;-34
2022/05/19 00:11:34;;;;;;;58.25;36.17;;;17.40;99.90;;;;;;4979007;28;90731;-37
2022/05/19 00:14:00;;;;;;;47.85;38.20;;;17.40;99.90;;;;;;4978614;28;89700;-36
2022/05/19 00:16:28;;;;;;;44.45;39.63;;;17.40;99.90;;;;;;4979207;28;89746;-41
2022/05/19 00:18:54;;;;;;;46.83;40.20;;;17.40;99.90;;;;;;4978411;28;88473;-37
2022/05/19 00:21:20;;;;;;;48.33;38.83;;;17.40;99.90;;;;;;4978151;28;89958;-36
2022/05/19 00:23:46;;;;;;;41.83;37.28;;;17.40;99.90;;;;;;4978305;28;90583;-39
2022/05/19 00:26:11;;;;;;;48.53;38.92;;;17.30;99.90;;;;;;4979006;28;90482;-35
2022/05/19 00:28:37;;;;;;;48.10;39.42;;;17.40;99.90;;;;;;4978372;28;88949;-37
2022/05/19 00:31:03;;;;;;;48.58;40.50;;;17.30;99.90;;;;;;4979262;28;90122;-34
2022/05/19 00:33:28;;;;;;;47.78;37.50;;;17.30;99.90;;;;;;4978474;28;90177;-35
2022/05/19 00:35:54;;;;;;;44.95;38.58;;;17.30;99.90;;;;;;4978701;28;89634;-37
2022/05/19 00:38:19;;;;;;;47.85;39.90;;;17.20;99.90;;;;;;4978470;28;89764;-37
2022/05/19 00:40:51;;;;;;;46.22;39.17;;;17.20;99.90;;;;;;4978278;28;90219;-37
2022/05/19 00:43:27;;;;;;;43.53;38.47;;;17.20;99.90;;;;;;4977694;28;89595;-37
2022/05/19 00:46:05;;;;;;;44.10;39.38;;;17.10;99.90;;;;;;5009759;22;90180;-35
2022/05/19 00:48:53;;;;;;;51.13;41.75;;;17.10;99.90;;;;;;4978678;28;90556;-37
2022/05/19 00:51:24;;;;;;;43.00;38.53;;;17.00;99.90;;;;;;4978467;28;89694;-36
2022/05/19 00:53:54;;;;;;;48.50;40.60;;;17.00;99.90;;;;;;4978393;28;89722;-38
2022/05/19 00:56:28;;;;;;;45.03;40.30;;;16.90;99.90;;;;;;4978829;28;90663;-35
2022/05/19 00:59:07;;;;;;;47.17;39.83;;;16.80;99.90;;;;;;4981666;28;88127;-39
2022/05/19 01:01:35;;;;;;;47.25;38.95;;;16.80;99.90;;;;;;4982125;28;90352;-38
2022/05/19 01:04:14;;;;;;;44.10;38.80;;;16.70;99.90;;;;;;4981805;28;89789;-38
2022/05/19 01:06:42;;;;;;;45.13;39.83;;;16.60;99.90;;;;;;4981399;28;89706;-34
2022/05/19 01:09:12;;;;;;;47.85;42.60;;;16.50;99.90;;;;;;4981785;28;88531;-37
2022/05/19 01:11:38;;;;;;;47.35;41.35;;;16.50;99.90;;;;;;4980825;28;89159;-35
2022/05/19 01:14:06;;;;;;;50.13;40.85;;;16.50;99.90;;;;;;4982228;28;90748;-36
2022/05/19 01:16:32;;;;;;;52.90;46.10;;;16.60;99.90;;;;;;4981540;28;90819;-36
2022/05/19 01:18:58;;;;;;;46.72;41.17;;;16.50;99.90;;;;;;4981222;28;88760;-36
2022/05/19 01:21:29;;;;;;;54.15;44.22;;;16.60;99.90;;;;;;4981494;28;90284;-34
2022/05/19 01:24:19;;;;;;;53.30;44.15;;;16.50;99.90;;;;;;4982265;28;89992;-34
2022/05/19 01:26:51;;;;;;;50.00;44.15;;;16.60;99.90;;;;;;4981362;28;89598;-36
2022/05/19 01:29:21;;;;;;;53.85;42.63;;;16.50;99.90;;;;;;4980932;28;89803;-35
2022/05/19 01:31:55;;;;;;;49.60;44.13;;;16.50;99.90;;;;;;4981441;28;91244;-36
2022/05/19 01:34:24;;;;;;;48.90;42.67;;;16.50;99.90;;;;;;4981808;28;89671;-36
2022/05/19 01:36:50;;;;;;;54.15;43.92;;;16.50;99.90;;;;;;4981320;28;89897;-36
2022/05/19 01:39:20;;;;;;;56.55;45.28;;;16.50;99.90;;;;;;4980988;28;90379;-36
2022/05/19 01:42:13;;;;;;;53.33;45.75;;;16.40;99.90;;;;;;4980272;28;89887;-36
2022/05/19 01:44:44;;;;;;;58.33;44.72;;;16.30;99.90;;;;;;4981197;28;89764;-38
2022/05/19 01:47:20;;;;;;;49.88;44.42;;;16.30;99.90;;;;;;4980436;28;89551;-38
2022/05/19 01:50:13;;;;;;;52.40;44.47;;;16.30;99.90;;;;;;4981805;28;87593;-36
2022/05/19 01:53:02;;;;;;;54.72;45.67;;;16.30;99.90;;;;;;4980353;28;90588;-35
2022/05/19 01:55:46;;;;;;;58.33;47.03;;;16.30;99.90;;;;;;4980570;28;91090;-36
2022/05/19 01:58:19;;;;;;;50.50;44.42;;;16.20;99.90;;;;;;4981174;28;90001;-38
2022/05/19 02:00:48;;;;;;;56.83;46.28;;;16.20;99.90;;;;;;4973168;28;89340;-34
2022/05/19 02:03:32;;;;;;;55.45;47.90;;;16.00;99.90;;;;;;4960656;28;90033;-37
2022/05/19 02:06:08;;;;;;;53.70;46.63;;;15.90;99.90;;;;;;4960874;28;90679;-34
2022/05/19 02:08:42;;;;;;;56.65;46.55;;;15.90;99.90;;;;;;4961128;28;91382;-34
2022/05/19 02:11:16;;;;;;;59.28;49.58;;;15.90;99.90;;;;;;4961329;28;89134;-39
2022/05/19 02:13:43;;;;;;;54.97;47.67;;;15.90;99.90;;;;;;4960659;28;91818;-38
2022/05/19 02:16:13;;;;;;;53.85;48.03;;;15.90;99.90;;;;;;4959919;28;89670;-36
2022/05/19 02:18:41;;;;;;;64.18;52.50;;;15.80;99.90;;;;;;4959943;28;90851;-35
2022/05/19 02:21:07;;;;;;;65.25;51.47;;;15.80;99.90;;;;;;4961220;28;89787;-38
2022/05/19 02:23:34;;;;;;;54.22;47.55;;;15.90;99.90;;;;;;4960677;28;92275;-35
2022/05/19 02:26:00;;;;;;;58.33;50.67;;;15.80;99.90;;;;;;4960442;28;89816;-35
2022/05/19 02:28:44;;;;;;;58.78;51.00;;;15.80;99.90;;;;;;4960426;28;89714;-38
2022/05/19 02:31:09;;;;;;;67.47;54.83;;;15.80;99.90;;;;;;4960390;28;89166;-35
2022/05/19 02:33:35;;;;;;;56.85;50.72;;;15.70;99.90;;;;;;4960166;28;91054;-34
2022/05/19 02:36:02;;;;;;;60.13;49.53;;;15.70;99.90;;;;;;4960855;28;89640;-35
2022/05/19 02:38:28;;;;;;;62.17;50.50;;;15.70;99.90;;;;;;4960032;28;89551;-36
2022/05/19 02:40:53;;;;;;;61.22;52.47;;;15.70;99.90;;;;;;4960376;28;90038;-35
2022/05/19 02:43:19;;;;;;;62.05;51.13;;;15.60;99.90;;;;;;4960647;28;90335;-34
2022/05/19 02:45:47;;;;;;;59.00;52.63;;;15.60;99.90;;;;;;4959710;28;89404;-40
2022/05/19 02:48:14;;;;;;;60.53;53.92;;;15.50;99.90;;;;;;4960487;28;89263;-36
2022/05/19 02:50:42;;;;;;;63.70;54.75;;;15.60;99.90;;;;;;4960476;28;88496;-33
2022/05/19 02:53:08;;;;;;;;;;;15.50;99.90;;;;;;4960652;28;91454;-35
2022/05/19 02:55:34;;;;;;;66.28;57.13;;;15.60;99.90;;;;;;4962010;28;90080;-36
2022/05/19 02:58:00;;;;;;;68.20;53.80;;;15.60;99.90;;;;;;4960387;28;90782;-33
2022/05/19 03:00:26;;;;;;;72.05;57.33;;;15.60;99.90;;;;;;4960126;28;88895;-34
2022/05/19 03:02:57;;;;;;;62.88;55.22;;;15.60;99.90;;;;;;4960389;28;90424;-35
2022/05/19 03:05:26;;;;;;;62.30;54.60;;;15.60;99.90;;;;;;4960878;28;89368;-34
2022/05/19 03:07:51;;;;;;;71.78;55.63;;;15.60;99.90;;;;;;4959873;28;89992;-39
2022/05/19 03:10:17;;;;;;;69.35;55.83;;;15.60;99.90;;;;;;4960374;28;89278;-36
2022/05/19 03:12:43;;;;;;;68.28;54.63;;;15.60;99.90;;;;;;4959812;28;90060;-35
2022/05/19 03:15:10;;;;;;;61.40;54.78;;;15.60;99.90;;;;;;4960394;28;89528;-36
2022/05/19 03:17:36;;;;;;;72.05;56.08;;;15.60;99.90;;;;;;4959946;28;89622;-36
2022/05/19 03:20:04;;;;;;;62.33;55.53;;;15.60;99.90;;;;;;4958807;28;90462;-39
2022/05/19 03:22:30;;;;;;;62.80;55.80;;;15.60;99.90;;;;;;4959555;28;90095;-37
2022/05/19 03:24:56;;;;;;;74.55;56.75;;;15.60;99.90;;;;;;4959384;28;89523;-35
2022/05/19 03:27:21;;;;;;;62.13;55.08;;;15.60;99.90;;;;;;4959747;28;88323;-34
2022/05/19 03:29:51;;;;;;;61.15;52.58;;;15.60;99.90;;;;;;4960308;28;90051;-35
2022/05/19 03:32:17;;;;;;;60.35;53.83;;;15.50;99.90;;;;;;4959956;28;90207;-35
2022/05/19 03:34:43;;;;;;;65.18;57.88;;;15.50;99.90;;;;;;4959204;28;89880;-34
2022/05/19 03:37:09;;;;;;;65.80;56.75;;;15.40;99.90;;;;;;4959838;28;89704;-36
2022/05/19 03:39:36;;;;;;;64.15;56.65;;;15.50;99.90;;;;;;4959469;28;87547;-37
2022/05/19 03:42:03;;;;;;;69.72;56.72;;;15.50;99.90;;;;;;4959055;28;90367;-33
2022/05/19 03:44:28;;;;;;;68.97;56.47;;;15.50;99.90;;;;;;4959684;28;91732;-34
2022/05/19 03:46:54;;;;;;;70.40;55.97;;;15.50;99.90;;;;;;4958478;28;90521;-36
2022/05/19 03:49:19;;;;;;;66.07;58.75;;;15.50;99.90;;;;;;4959477;28;89393;-35
2022/05/19 03:51:45;;;;;;;64.47;55.33;;;15.50;99.90;;;;;;4959370;28;90475;-35
2022/05/19 03:54:11;;;;;;;68.35;56.45;;;15.50;99.90;;;;;;4959640;28;90062;-35
2022/05/19 03:56:37;;;;;;;74.20;57.72;;;15.60;99.90;;;;;;4959953;28;89472;-34
2022/05/19 03:59:04;;;;;;;68.25;57.92;;;15.60;99.90;;;;;;4959375;28;89527;-34
2022/05/19 04:01:30;;;;;;;73.63;57.88;;;15.50;99.90;;;;;;4958787;28;89141;-38
2022/05/19 04:03:56;;;;;;;66.10;56.13;;;15.60;99.90;;;;;;4959070;28;89992;-39
2022/05/19 04:06:22;;;;;;;61.13;54.53;;;15.60;99.90;;;;;;4958754;28;90388;-37
2022/05/19 04:08:48;;;;;;;69.72;57.05;;;15.60;99.90;;;;;;4959544;28;88246;-38
2022/05/19 04:11:14;;;;;;;66.47;55.70;;;15.60;99.90;;;;;;4959245;28;90908;-34
2022/05/19 04:13:40;;;;;;;65.50;56.10;;;15.70;99.90;;;;;;4958575;28;89459;-34
2022/05/19 04:16:06;;;;;;;68.05;56.88;;;15.70;99.90;;;;;;4959608;28;89857;-37
2022/05/19 04:18:32;;;;;;;59.97;51.53;;;15.70;99.90;;;;;;4959447;28;88129;-36
2022/05/19 04:20:58;;;;;;;65.53;57.45;;;15.80;99.90;;;;;;4958958;28;90020;-39
2022/05/19 04:23:23;;;;;;;70.00;55.28;;;15.80;99.90;;;;;;4959381;28;93817;-34
2022/05/19 04:25:50;;;;;;;66.43;52.38;;;15.80;99.90;;;;;;4958806;28;89589;-34
2022/05/19 04:28:16;;;;;;;60.03;51.75;;;15.80;99.90;;;;;;4959346;28;87883;-35
2022/05/19 04:30:42;;;;;;;58.53;52.08;;;15.90;99.90;;;;;;4958538;28;90195;-34
2022/05/19 04:33:08;;;;;;;59.17;52.67;;;15.90;99.90;;;;;;4958525;28;90407;-39
2022/05/19 04:35:35;;;;;;;60.45;52.03;;;16.00;99.90;;;;;;4959097;28;90719;-39
2022/05/19 04:38:12;;;;;;;58.35;51.70;;;16.00;99.90;;;;;;4958021;28;89383;-37
2022/05/19 04:40:39;;;;;;;63.55;53.05;;;16.10;99.90;;;;;;4958557;28;89687;-33
2022/05/19 04:43:06;;;;;;;70.82;55.60;;;16.20;99.90;;;;;;4958835;28;89793;-36
2022/05/19 04:45:32;;;;;;;57.63;49.78;;;16.20;99.90;;;;;;4959194;28;89851;-34
2022/05/19 04:47:59;;;;;;;57.92;50.15;;;16.20;99.90;;;;;;4958458;28;88684;-37
2022/05/19 04:50:24;;;;;;;59.58;52.17;;;16.20;99.90;;;;;;4958782;28;90261;-34
2022/05/19 04:52:50;;;;;;;63.28;52.42;;;16.30;99.90;;;;;;4958445;28;90529;-37
2022/05/19 04:55:16;;;;;;;56.53;50.33;;;16.40;99.90;;;;;;4958758;28;89429;-35
2022/05/19 04:57:43;;;;;;;58.38;52.22;;;16.70;99.90;;;;;;4958366;28;89764;-37
2022/05/19 05:00:11;;;;;;;64.57;50.00;;;16.80;99.90;;;;;;4959201;28;90220;-34
2022/05/19 05:02:37;;;;;;;61.92;50.22;;;16.90;99.90;;;;;;4957879;28;89572;-37
2022/05/19 05:05:03;;;;;;;62.22;51.22;;;17.00;99.90;;;;;;4959053;28;89142;-34
2022/05/19 05:07:28;;;;;;;55.28;47.00;;;17.00;99.90;;;;;;4958606;28;89300;-35
2022/05/19 05:09:54;;;;;;;50.40;44.90;;;17.10;99.90;;;;;;4958342;28;89923;-38
2022/05/19 05:12:20;;;;;;;59.90;47.95;;;17.10;99.90;;;;;;4959070;28;89270;-34
2022/05/19 05:14:45;;;;;;;51.60;46.13;;;17.20;99.90;;;;;;4958371;28;89973;-35
2022/05/19 05:17:11;;;;;;;50.13;44.63;;;17.30;99.90;;;;;;4958671;28;89447;-37
2022/05/19 05:19:37;;;;;;;53.35;44.13;;;17.30;99.90;;;;;;4958396;28;90683;-34
2022/05/19 05:22:03;;;;;;;48.55;43.50;;;17.40;99.90;;;;;;4958021;28;90873;-34
2022/05/19 05:24:28;;;;;;;55.25;42.05;;;17.50;99.90;;;;;;4958843;28;91382;-34
2022/05/19 05:26:54;;;;;;;47.97;39.95;;;17.60;99.90;;;;;;4958094;28;89338;-36
2022/05/19 05:29:20;;;;;;;44.90;39.75;;;17.70;99.90;;;;;;4958182;28;90600;-36
2022/05/19 05:31:46;;;;;;;39.55;35.42;;;17.80;99.90;;;;;;4958076;28;89258;-37
2022/05/19 05:34:12;;;;;;;40.03;35.95;;;18.00;99.90;;;;;;4958897;28;89506;-37
2022/05/19 05:36:38;;;;;;;38.08;33.33;;;18.20;99.90;;;;;;4958442;28;88500;-36
2022/05/19 05:39:04;;;;;;;38.63;34.65;;;18.50;99.90;;;;;;4958058;28;90035;-35
2022/05/19 05:41:29;;;;;;;39.17;33.83;;;18.80;99.90;;;;;;4958382;28;89522;-34
2022/05/19 05:43:55;;;;;;;41.45;32.63;;;19.00;99.90;;;;;;4959392;28;89286;-35
2022/05/19 05:46:21;;;;;;;55.05;33.00;;;19.20;99.90;;;;;;4961112;28;90344;-39
2022/05/19 05:48:48;;;;;;;40.95;33.08;;;19.30;99.90;;;;;;4961474;28;91522;-34
2022/05/19 05:51:15;;;;;;;36.05;31.20;;;19.40;99.90;;;;;;4960751;28;89866;-38
2022/05/19 05:53:43;;;;;;;32.65;29.27;;;19.40;99.90;;;;;;4961263;28;89419;-36
2022/05/19 05:56:12;;;;;;;33.05;29.45;;;19.40;99.90;;;;;;4962315;28;89445;-37
2022/05/19 05:58:39;;;;;;;37.30;27.20;;;19.50;99.90;;;;;;4960871;28;90367;-35
2022/05/19 06:01:07;;;;;;;28.20;25.23;;;19.60;99.90;;;;;;4969330;28;91077;-36
2022/05/19 06:03:34;;;;;;;30.50;27.42;;;19.70;99.90;;;;;;4980212;28;92091;-35
2022/05/19 06:06:01;;;;;;;36.08;28.88;;;19.70;99.90;;;;;;4979719;28;90032;-35
2022/05/19 06:08:27;;;;;;;47.15;29.27;;;19.90;99.90;;;;;;4981065;28;91346;-35
2022/05/19 06:10:52;;;;;;;32.45;28.60;;;20.00;99.90;;;;;;4979176;28;90409;-33
2022/05/19 06:13:18;;;;;;;34.83;25.50;;;20.00;99.90;;;;;;4980285;28;90508;-37
2022/05/19 06:15:44;;;;;;;28.08;25.00;;;19.90;99.90;;;;;;4980882;28;89960;-35
2022/05/19 06:18:11;;;;;;;31.20;25.33;;;19.90;99.90;;;;;;4980227;28;90131;-36
2022/05/19 06:20:37;;;;;;;55.95;26.77;;;20.10;99.90;;;;;;4980852;28;89232;-35
2022/05/19 06:23:03;;;;;;;25.73;23.05;;;20.10;99.90;;;;;;4980542;28;90009;-39
2022/05/19 06:25:29;;;;;;;26.48;22.38;;;20.40;99.90;;;;;;4980940;28;89438;-35
2022/05/19 06:27:56;;;;;;;25.35;21.38;;;20.70;99.90;;;;;;4980586;28;89746;-35
2022/05/19 06:30:22;;;;;;;23.60;21.05;;;20.90;99.90;;;;;;4980457;28;89670;-36
2022/05/19 06:32:48;;;;;;;24.60;20.48;;;21.10;99.90;;;;;;4980206;28;89561;-36
2022/05/19 06:35:17;;;;;;;20.73;18.55;;;21.40;99.90;;;;;;4980140;28;88535;-37
2022/05/19 06:37:43;;;;;;;20.45;18.23;;;21.80;99.90;;;;;;4980458;28;91444;-36
2022/05/19 06:40:15;;;;;;;21.25;17.42;;;22.10;99.90;;;;;;4980399;28;88961;-36
2022/05/19 06:42:41;;;;;;;18.88;16.77;;;22.20;99.90;;;;;;4980002;28;89651;-34
2022/05/19 06:45:08;;;;;;;21.83;15.45;;;22.50;99.90;;;;;;4980782;28;90768;-35
2022/05/19 06:47:35;;;;;;;15.02;13.80;;;22.70;99.90;;;;;;4980327;28;90820;-37
2022/05/19 06:50:00;;;;;;;15.35;13.73;;;22.80;99.90;;;;;;4980077;28;90391;-38
2022/05/19 06:52:29;;;;;;;15.80;11.65;;;23.30;99.90;;;;;;4979957;28;90037;-37
2022/05/19 06:54:57;;;;;;;20.58;12.38;;;23.10;99.90;;;;;;4979369;28;87734;-37
2022/05/19 06:57:25;;;;;;;11.35;9.55;;;23.10;99.90;;;;;;4980478;28;90376;-34
2022/05/19 06:59:51;;;;;;;21.40;13.27;;;23.20;99.90;;;;;;4980063;28;90749;-37
2022/05/19 07:02:19;;;;;;;13.35;11.25;;;23.10;99.90;;;;;;4979363;28;90762;-35
2022/05/19 07:04:45;;;;;;;16.40;13.15;;;23.30;99.90;;;;;;4979611;28;88597;-35
2022/05/19 07:07:12;;;;;;;15.35;12.60;;;23.20;99.90;;;;;;4980183;28;89170;-37
2022/05/19 07:09:38;;;;;;;14.27;12.63;;;23.00;99.90;;;;;;4979828;28;89179;-36
2022/05/19 07:12:05;;;;;;;15.35;12.70;;;22.70;99.90;;;;;;4980449;28;89461;-35
2022/05/19 07:14:32;;;;;;;12.57;11.27;;;22.80;99.90;;;;;;4980080;28;88367;-36
2022/05/19 07:16:58;;;;;;;16.92;14.07;;;23.00;99.90;;;;;;4979900;28;90463;-36
2022/05/19 07:22:15;;;;;;;17.42;15.00;;;22.80;99.90;;;;;;4980678;28;89593;-36
2022/05/19 07:24:40;;;;;;;14.60;12.70;;;22.60;99.90;;;;;;4979529;28;88932;-34
2022/05/19 07:27:06;;;;;;;12.65;11.40;;;22.80;99.90;;;;;;4977814;28;90194;-36
2022/05/19 07:29:32;;;;;;;15.13;13.73;;;22.80;99.90;;;;;;4977459;28;89691;-33
2022/05/19 07:32:01;;;;;;;15.25;13.70;;;22.80;99.90;;;;;;4977670;28;89517;-38
2022/05/19 07:34:29;;;;;;;17.48;13.32;;;22.90;99.90;;;;;;4977743;28;89213;-36
2022/05/19 07:36:57;;;;;;;16.70;11.50;;;23.10;99.90;;;;;;4977357;28;90975;-35
2022/05/19 07:39:22;;;;;;;14.47;12.60;;;22.90;99.90;;;;;;4977007;28;89576;-35
2022/05/19 07:41:48;;;;;;;12.23;10.93;;;22.90;99.90;;;;;;4977611;28;90309;-35
2022/05/19 07:44:14;;;;;;;13.30;10.77;;;22.90;99.90;;;;;;4977444;28;89176;-36
2022/05/19 07:46:40;;;;;;;13.38;11.25;;;22.60;99.90;;;;;;4976998;28;90142;-34
2022/05/19 07:49:05;;;;;;;12.18;10.98;;;22.40;99.90;;;;;;4977220;28;91670;-35
2022/05/19 07:51:36;;;;;;;10.18;9.27;;;22.20;99.90;;;;;;4977144;28;90918;-35
2022/05/19 07:54:07;;;;;;;11.20;9.73;;;22.20;99.90;;;;;;4977540;28;89265;-38
2022/05/19 07:56:33;;;;;;;15.13;10.70;;;22.00;99.90;;;;;;4977503;28;91811;-35
2022/05/19 07:59:04;;;;;;;10.88;9.82;;;21.90;99.90;;;;;;4976745;28;90059;-39
2022/05/19 08:01:30;;;;;;;15.13;10.27;;;21.80;99.90;;;;;;4977162;28;89837;-36
2022/05/19 08:03:56;;;;;;;15.95;10.57;;;21.70;99.90;;;;;;4977051;28;87591;-36
2022/05/19 08:06:22;;;;;;;49.63;15.20;;;21.50;99.90;;;;;;4976837;28;90678;-37
2022/05/19 08:08:48;;;;;;;12.35;10.70;;;21.50;99.90;;;;;;4976676;28;90517;-34
2022/05/19 08:11:14;;;;;;;13.38;11.98;;;21.40;99.90;;;;;;4977624;28;90320;-33
2022/05/19 08:16:24;;;;;;;19.08;16.13;;;20.70;99.90;;;;;;4977821;28;92194;-38
2022/05/19 08:18:49;;;;;;;21.63;17.88;;;20.30;99.90;;;;;;4976253;28;89721;-36
2022/05/19 08:21:16;;;;;;;16.85;15.07;;;20.30;99.90;;;;;;4976796;28;89568;-39
2022/05/19 08:23:47;;;;;;;18.60;16.67;;;20.30;99.90;;;;;;4977338;28;90160;-35
2022/05/19 08:26:14;;;;;;;18.48;16.63;;;20.30;99.90;;;;;;4976994;28;90202;-34
2022/05/19 08:28:42;;;;;;;22.17;18.52;;;20.50;99.90;;;;;;4977287;28;90197;-37
2022/05/19 08:31:16;;;;;;;20.27;18.42;;;20.30;99.90;;;;;;4976624;28;89803;-34
2022/05/19 08:33:45;;;;;;;22.10;20.00;;;20.30;99.90;;;;;;4976161;28;88491;-35
2022/05/19 08:36:11;;;;;;;23.75;21.35;;;20.40;99.90;;;;;;4977209;28;89901;-33
2022/05/19 08:38:39;;;;;;;27.77;21.45;;;20.40;99.90;;;;;;4975772;28;90349;-34
2022/05/19 08:41:32;;;;;;;30.20;23.92;;;20.50;99.90;;;;;;4976558;28;90508;-36
2022/05/19 08:44:00;;;;;;;23.45;21.33;;;20.40;99.90;;;;;;4977116;28;89430;-33
2022/05/19 08:46:31;;;;;;;27.97;22.40;;;20.50;99.90;;;;;;4975952;28;91500;-33
2022/05/19 08:49:04;;;;;;;24.02;21.92;;;20.50;99.90;;;;;;4975248;28;89867;-34
2022/05/19 08:51:36;;;;;;;28.40;22.73;;;20.60;99.90;;;;;;4976509;28;90122;-35
2022/05/19 08:54:08;;;;;;;24.65;21.80;;;20.60;99.90;;;;;;4975777;28;88972;-35
2022/05/19 08:56:45;;;;;;;22.17;19.92;;;20.70;99.90;;;;;;4976137;28;90259;-37
2022/05/19 08:59:30;;;;;;;26.30;23.40;;;20.70;99.90;;;;;;4975130;28;90309;-38
2022/05/19 09:02:09;;;;;;;26.83;22.70;;;20.90;99.90;;;;;;4976169;28;90885;-34
2022/05/19 09:04:52;;;;;;;24.20;21.73;;;20.80;99.90;;;;;;4975973;28;89746;-35
2022/05/19 09:10:33;;;;;;;26.77;23.90;;;20.90;99.90;;;;;;4979369;28;90789;-36
2022/05/19 09:13:35;;;;;;;23.38;21.13;;;20.90;99.90;;;;;;4987316;28;89518;-35
2022/05/19 09:16:18;;;;;;;27.60;22.17;;;21.10;99.90;;;;;;4976679;28;88942;-38
2022/05/19 09:18:56;;;;;;;25.88;23.23;;;21.10;99.90;;;;;;4982594;28;90193;-38
2022/05/19 09:21:21;;;;;;;24.60;22.27;;;21.30;99.90;;;;;;4999249;28;88932;-35
2022/05/19 09:23:47;;;;;;;24.05;21.55;;;21.40;99.90;;;;;;4998747;28;90132;-34
2022/05/19 09:26:28;;;;;;;22.65;20.35;;;21.40;99.90;;;;;;4999663;28;88395;-33
2022/05/19 09:29:01;;;;;;;24.73;21.92;;;21.50;99.90;;;;;;4999138;28;90076;-36
2022/05/19 09:31:37;;;;;;;25.95;23.55;;;21.50;99.90;;;;;;4998117;28;90664;-36
2022/05/19 09:34:06;;;;;;;23.58;21.15;;;21.60;99.90;;;;;;4998606;28;90694;-39
2022/05/19 09:36:41;;;;;;;25.52;22.92;;;21.50;99.90;;;;;;4999547;28;89168;-40
2022/05/19 09:39:12;;;;;;;24.20;21.98;;;21.50;99.90;;;;;;4999143;28;90935;-36
2022/05/19 09:41:45;;;;;;;27.20;23.42;;;21.50;99.90;;;;;;4999459;28;88657;-35
2022/05/19 09:44:14;;;;;;;24.65;22.02;;;21.60;99.90;;;;;;4998887;28;89070;-37
2022/05/19 09:46:44;;;;;;;24.80;22.38;;;21.70;99.90;;;;;;4998682;28;89159;-38
2022/05/19 09:49:28;;;;;;;25.67;23.05;;;21.80;99.90;;;;;;4999225;28;90281;-38
2022/05/19 09:52:03;;;;;;;28.33;23.92;;;21.90;99.90;;;;;;4999286;28;89292;-37
2022/05/19 09:54:34;;;;;;;26.98;23.75;;;21.90;99.90;;;;;;4980275;28;90468;-37
2022/05/19 09:57:14;;;;;;;26.42;23.58;;;21.90;99.90;;;;;;4994793;28;88951;-36
2022/05/19 09:59:52;;;;;;;25.17;22.70;;;21.80;99.90;;;;;;4984688;28;92081;-36
2022/05/19 10:02:23;;;;;;;28.27;23.05;;;22.00;99.90;;;;;;4982755;28;90132;-37
2022/05/19 10:04:55;;;;;;;26.45;22.17;;;22.30;99.90;;;;;;4978950;28;89019;-34
2022/05/19 10:07:28;;;;;;;28.33;23.15;;;22.50;99.90;;;;;;4978912;28;89095;-35
2022/05/19 10:09:58;;;;;;;26.58;23.77;;;22.70;99.90;;;;;;4977839;28;89985;-41
2022/05/19 10:12:29;;;;;;;25.95;23.55;;;22.90;99.90;;;;;;4978928;28;90404;-36
2022/05/19 10:15:10;;;;;;;28.45;25.50;;;22.80;99.90;;;;;;4977787;28;89947;-35
2022/05/19 10:17:50;;;;;;;30.52;23.58;;;22.70;99.90;;;;;;4978883;28;88825;-37
2022/05/19 10:20:15;;;;;;;26.45;21.67;;;22.90;99.90;;;;;;4978052;28;90086;-34
2022/05/19 10:22:44;;;;;;;26.92;24.05;;;23.20;99.90;;;;;;4977022;28;90716;-34
2022/05/19 10:25:32;;;;;;;33.88;24.83;;;23.10;99.90;;;;;;4978128;28;90862;-38
2022/05/19 10:31:30;;;;;;;25.90;23.25;;;22.80;99.90;;;;;;4977667;28;90835;-35
2022/05/19 10:34:01;;;;;;;20.92;18.77;;;23.00;99.90;;;;;;4960152;28;89624;-38
2022/05/19 10:36:47;;;;;;;23.40;20.17;;;23.10;99.90;;;;;;4978605;28;91574;-34
2022/05/19 10:39:43;;;;;;;20.15;17.85;;;23.30;99.90;;;;;;4977590;28;89426;-36
2022/05/19 10:42:18;;;;;;;22.55;19.40;;;23.40;99.90;;;;;;4978285;28;88920;-34
2022/05/19 10:44:50;;;;;;;24.08;18.50;;;23.60;99.90;;;;;;4977859;28;90917;-34
2022/05/19 10:47:42;;;;;;;22.13;19.88;;;23.40;99.90;;;;;;4977561;28;89565;-36
2022/05/19 10:50:19;;;;;;;20.55;18.55;;;23.50;99.90;;;;;;4977585;28;90079;-39
2022/05/19 10:53:01;;;;;;;20.05;18.13;;;23.50;99.90;;;;;;4977655;28;90751;-36
2022/05/19 10:55:51;;;;;;;18.55;16.75;;;23.50;99.90;;;;;;4977362;28;89576;-38
2022/05/19 10:58:48;;;;;;;20.60;18.40;;;23.70;99.90;;;;;;4978008;28;90998;-34
2022/05/19 11:01:46;;;;;;;19.43;17.40;;;23.90;99.90;;;;;;4975942;28;88041;-36
2022/05/19 11:04:22;;;;;;;18.40;16.75;;;24.40;99.90;;;;;;4977275;28;92409;-34
2022/05/19 11:06:56;;;;;;;17.02;15.38;;;24.30;99.90;;;;;;4976435;28;90395;-36
2022/05/19 11:09:38;;;;;;;15.27;13.65;;;24.60;99.90;;;;;;4978276;28;89590;-36
2022/05/19 11:12:11;;;;;;;18.45;14.60;;;24.80;99.90;;;;;;4978286;28;88899;-37
2022/05/19 11:14:58;;;;;;;13.65;12.38;;;25.00;99.90;;;;;;4977368;28;90907;-36
2022/05/19 11:18:01;;;;;;;10.07;9.20;;;25.10;99.90;;;;;;4976920;28;90856;-35
2022/05/19 11:20:48;;;;;;;14.05;9.55;;;25.40;99.90;;;;;;4977855;28;90834;-37
2022/05/19 11:23:43;;;;;;;12.23;10.83;;;25.40;99.90;;;;;;4978534;28;88818;-37
2022/05/19 11:26:48;;;;;;;12.77;11.50;;;25.50;99.90;;;;;;4977280;28;90058;-37
2022/05/19 11:29:42;;;;;;;10.52;7.90;;;25.50;99.90;;;;;;4974521;28;89294;-37
2022/05/19 11:32:31;;;;;;;9.25;7.53;;;25.80;99.90;;;;;;4978258;28;89556;-38
2022/05/19 11:35:00;;;;;;;5.72;5.15;;;25.90;99.90;;;;;;4978485;28;89137;-35
2022/05/19 11:37:43;;;;;;;4.95;4.28;;;25.80;99.90;;;;;;4979006;28;90292;-36
2022/05/19 11:40:16;;;;;;;6.20;5.10;;;25.90;98.50;;;;;;4977054;28;89609;-38
2022/05/19 11:42:47;;;;;;;5.45;4.95;;;26.10;98.60;;;;;;4977299;28;89680;-35
2022/05/19 11:45:21;;;;;;;4.88;4.50;;;26.10;94.20;;;;;;4977536;28;89018;-38
2022/05/19 11:57:24;;;;;;;12.80;3.38;;;26.20;95.70;;;;;;4977918;28;89007;-37
2022/05/19 11:59:55;;;;;;;4.60;3.33;;;26.10;93.50;;;;;;4977047;28;90708;-38
2022/05/19 12:02:28;;;;;;;4.28;3.60;;;25.90;92.20;;;;;;4978204;28;89668;-33
2022/05/19 12:05:18;;;;;;;6.95;3.78;;;25.90;93.10;;;;;;4976945;28;88392;-38
2022/05/19 12:07:51;;;;;;;4.50;4.13;;;26.10;91.50;;;;;;4977155;28;88980;-35
2022/05/19 12:10:23;;;;;;;7.35;4.75;;;26.00;93.50;;;;;;4977243;28;91661;-36
2022/05/19 12:12:58;;;;;;;5.43;4.93;;;26.00;97.10;;;;;;4977185;28;90723;-36
2022/05/19 12:15:38;;;;;;;7.03;4.15;;;26.10;99.90;;;;;;4977701;28;90353;-35
2022/05/19 12:18:24;;;;;;;4.32;3.92;;;26.00;99.90;;;;;;4978179;28;89042;-36
2022/05/19 12:21:02;;;;;;;4.47;3.38;;;26.00;99.90;;;;;;4976960;28;90297;-33
2022/05/19 12:23:37;;;;;;;5.25;4.05;;;26.00;98.30;;;;;;4976968;28;89148;-35
2022/05/19 12:26:23;;;;;;;8.43;4.07;;;26.00;97.20;;;;;;4977294;28;89718;-35
2022/05/19 12:29:13;;;;;;;3.97;3.67;;;26.00;98.30;;;;;;4977629;28;88604;-36
2022/05/19 12:31:59;;;;;;;7.13;5.10;;;26.00;99.90;;;;;;4977323;28;90311;-37
2022/05/19 12:34:49;;;;;;;4.30;4.00;;;26.10;98.50;;;;;;4977207;28;90354;-36
2022/05/19 12:37:15;;;;;;;4.28;3.75;;;26.00;99.20;;;;;;4967648;28;89518;-35
2022/05/19 12:39:46;;;;;;;4.90;4.40;;;26.00;97.70;;;;;;4976514;28;89555;-35
2022/05/19 12:42:37;;;;;;;8.73;3.95;;;26.00;99.20;;;;;;4977068;28;90273;-37
2022/05/19 12:45:19;;;;;;;4.28;3.90;;;25.90;96.20;;;;;;4977048;28;90875;-35
2022/05/19 12:48:00;;;;;;;3.85;3.50;;;25.90;97.10;;;;;;5025974;22;89885;-36
2022/05/19 12:50:41;;;;;;;4.93;4.53;;;25.80;96.00;;;;;;4976748;28;88411;-34
2022/05/19 12:53:13;;;;;;;4.35;3.95;;;25.80;98.30;;;;;;4979461;28;90177;-39
2022/05/19 12:55:39;;;;;;;449.42;71.82;;;25.70;99.90;;;;;;4980397;28;89509;-36
2022/05/19 12:58:44;;;;;;;24.30;6.68;;;25.70;99.90;;;;;;4980046;28;89715;-35
2022/05/19 13:01:20;;;;;;;26.00;6.90;;;25.60;99.90;;;;;;4980503;28;89706;-38
2022/05/19 13:04:07;;;;;;;9.23;4.60;;;25.30;99.90;;;;;;4980568;28;90526;-38
2022/05/19 13:06:33;;;;;;;;;;;25.20;99.90;;;;;;4981117;28;90536;-36
2022/05/19 13:09:03;;;;;;;3.83;3.40;;;24.90;99.90;;;;;;4980749;28;90436;-36
2022/05/19 13:11:35;;;;;;;5.53;3.85;;;24.80;99.90;;;;;;4979767;28;88310;-35
2022/05/19 13:14:27;;;;;;;12.68;4.07;;;24.70;99.90;;;;;;4980580;28;90202;-36